Time;durP1;ratioP1;P1;durP2;ratioP2;P2;SDS_P1;SDS_P2;PMS_P1;PMS_P2;Temp;Humidity;BMP_temperature;BMP_pressure;BME280_temperature;BME280_humidity;BME280_pressure;Samples;Min_cycle;Max_cycle;Signal;HPM_P1;HPM_P2
2021/09/28 00:01:46;;;;;;;4.10;2.65;;;;;;;;;;5074338;28;20060;-85
2021/09/28 00:04:13;;;;;;;5.50;3.00;;;;;;;;;;5081011;28;20129;-85
2021/09/28 00:06:39;;;;;;;3.95;2.60;;;;;;;;;;5083493;28;20056;-86
2021/09/28 00:09:06;;;;;;;3.40;2.60;;;;;;;;;;5068164;28;20056;-85
2021/09/28 00:11:32;;;;;;;3.40;2.72;;;;;;;;;;5086607;28;20579;-85
2021/09/28 00:14:00;;;;;;;4.00;3.05;;;;;;;;;;5086583;28;20522;-84
2021/09/28 00:16:27;;;;;;;4.43;3.10;;;;;;;;;;5076601;28;20048;-81
2021/09/28 00:18:54;;;;;;;4.43;3.00;;;;;;;;;;5071220;28;20064;-84
2021/09/28 00:21:20;;;;;;;4.63;2.58;;;;;;;;;;5082875;28;20658;-83
2021/09/28 00:23:48;;;;;;;4.15;2.88;;;;;;;;;;5085293;28;20040;-84
2021/09/28 00:26:14;;;;;;;4.25;2.65;;;;;;;;;;5080861;28;20421;-84
2021/09/28 00:28:41;;;;;;;4.30;2.78;;;;;;;;;;5082559;28;20440;-83
2021/09/28 00:31:07;;;;;;;4.43;3.10;;;;;;;;;;5084504;28;20059;-83
2021/09/28 00:33:33;;;;;;;3.47;2.65;;;;;;;;;;5079700;28;20086;-84
2021/09/28 00:36:00;;;;;;;4.75;3.03;;;;;;;;;;5086989;28;20060;-83
2021/09/28 00:38:26;;;;;;;5.03;2.65;;;;;;;;;;5065254;28;20208;-84
2021/09/28 00:40:53;;;;;;;4.15;2.70;;;;;;;;;;5065226;28;20036;-84
2021/09/28 00:43:19;;;;;;;4.28;2.85;;;;;;;;;;5075540;28;20036;-85
2021/09/28 00:45:46;;;;;;;4.63;2.83;;;;;;;;;;5044847;28;20063;-84
2021/09/28 00:48:13;;;;;;;3.33;2.80;;;;;;;;;;5066244;28;20055;-84
2021/09/28 00:50:40;;;;;;;4.30;3.05;;;;;;;;;;5063415;28;20064;-84
2021/09/28 00:53:08;;;;;;;4.13;2.95;;;;;;;;;;5072807;28;20056;-84
2021/09/28 00:55:35;;;;;;;4.15;3.03;;;;;;;;;;5046341;28;20064;-85
2021/09/28 00:58:08;;;;;;;4.90;3.30;;;;;;;;;;5037783;28;20368;-84
2021/09/28 01:00:35;;;;;;;4.20;2.88;;;;;;;;;;5062755;28;20103;-83
2021/09/28 01:03:01;;;;;;;4.82;3.17;;;;;;;;;;5042334;28;20467;-84
2021/09/28 01:05:28;;;;;;;4.57;3.22;;;;;;;;;;5041950;28;20068;-84
2021/09/28 01:07:54;;;;;;;4.72;3.22;;;;;;;;;;5052126;28;20064;-85
2021/09/28 01:10:20;;;;;;;6.05;3.38;;;;;;;;;;5072418;28;20453;-85
2021/09/28 01:12:47;;;;;;;4.13;2.67;;;;;;;;;;5066474;28;20519;-85
2021/09/28 01:15:13;;;;;;;4.65;3.17;;;;;;;;;;5048561;28;20068;-84
2021/09/28 01:17:41;;;;;;;4.30;3.10;;;;;;;;;;5062731;28;20068;-84
2021/09/28 01:20:07;;;;;;;4.60;3.08;;;;;;;;;;5083606;28;20066;-84
2021/09/28 01:22:34;;;;;;;5.18;3.22;;;;;;;;;;5077709;28;20059;-84
2021/09/28 01:25:00;;;;;;;4.45;3.00;;;;;;;;;;5082965;28;20064;-84
2021/09/28 01:27:26;;;;;;;4.35;3.13;;;;;;;;;;5061437;28;20071;-84
2021/09/28 01:29:53;;;;;;;4.75;3.20;;;;;;;;;;5081688;28;20255;-84
2021/09/28 01:32:19;;;;;;;4.10;2.88;;;;;;;;;;5087857;28;20060;-84
2021/09/28 01:34:46;;;;;;;3.78;2.85;;;;;;;;;;5083015;28;20079;-84
2021/09/28 01:37:12;;;;;;;4.70;2.88;;;;;;;;;;5088394;28;20067;-85
2021/09/28 01:39:39;;;;;;;4.72;3.42;;;;;;;;;;5078708;28;20445;-84
2021/09/28 01:42:05;;;;;;;4.75;3.38;;;;;;;;;;5067590;28;20110;-83
2021/09/28 01:44:34;;;;;;;4.43;3.05;;;;;;;;;;5087562;28;20060;-83
2021/09/28 01:47:01;;;;;;;5.35;3.28;;;;;;;;;;5087182;28;20058;-83
2021/09/28 01:49:27;;;;;;;4.68;3.10;;;;;;;;;;5085954;28;20055;-83
2021/09/28 01:51:54;;;;;;;5.18;3.80;;;;;;;;;;5071671;28;20113;-83
2021/09/28 01:54:20;;;;;;;4.90;3.13;;;;;;;;;;5068373;28;20683;-83
2021/09/28 01:56:47;;;;;;;4.78;3.40;;;;;;;;;;5086782;28;22204;-83
2021/09/28 01:59:13;;;;;;;6.13;3.60;;;;;;;;;;5064853;28;20425;-83
2021/09/28 02:01:39;;;;;;;5.70;3.40;;;;;;;;;;5079864;28;20064;-82
2021/09/28 02:04:06;;;;;;;4.68;4.13;;;;;;;;;;5079243;28;20093;-83
2021/09/28 02:06:37;;;;;;;5.45;3.08;;;;;;;;;;5068549;28;20556;-83
2021/09/28 02:09:04;;;;;;;;;;;;;;;;;;5082639;28;20037;-83
2021/09/28 02:11:31;;;;;;;5.50;3.70;;;;;;;;;;5062045;28;19916;-82
2021/09/28 02:13:58;;;;;;;4.55;3.60;;;;;;;;;;5082769;28;20089;-82
2021/09/28 02:16:24;;;;;;;5.28;3.50;;;;;;;;;;5084912;28;20584;-82
2021/09/28 02:18:50;;;;;;;4.45;3.22;;;;;;;;;;5064009;28;20064;-82
2021/09/28 02:21:17;;;;;;;5.63;3.97;;;;;;;;;;5077521;28;20036;-82
2021/09/28 02:23:43;;;;;;;4.07;3.22;;;;;;;;;;5085625;28;20059;-82
2021/09/28 02:26:10;;;;;;;5.45;3.47;;;;;;;;;;5062239;28;20300;-83
2021/09/28 02:28:36;;;;;;;6.18;3.53;;;;;;;;;;5086241;28;20028;-82
2021/09/28 02:31:02;;;;;;;5.32;3.55;;;;;;;;;;5069073;28;20121;-82
2021/09/28 02:33:29;;;;;;;4.20;3.42;;;;;;;;;;5060576;28;20516;-83
2021/09/28 02:35:55;;;;;;;5.05;3.33;;;;;;;;;;5076624;28;20039;-82
2021/09/28 02:38:22;;;;;;;4.78;3.85;;;;;;;;;;5086818;28;20048;-82
2021/09/28 02:40:48;;;;;;;4.90;3.53;;;;;;;;;;5085751;28;20503;-83
2021/09/28 02:43:15;;;;;;;4.43;3.67;;;;;;;;;;5086567;28;20060;-83
2021/09/28 02:45:47;;;;;;;4.95;3.83;;;;;;;;;;5067144;28;20032;-83
2021/09/28 02:48:15;;;;;;;5.57;4.13;;;;;;;;;;5067523;28;20051;-82
2021/09/28 02:50:41;;;;;;;5.45;3.78;;;;;;;;;;5052162;28;20024;-82
2021/09/28 02:53:08;;;;;;;5.30;3.97;;;;;;;;;;5068473;28;20072;-83
2021/09/28 02:55:34;;;;;;;4.68;3.75;;;;;;;;;;5074305;28;20072;-81
2021/09/28 02:58:01;;;;;;;5.45;3.60;;;;;;;;;;5077044;28;20461;-82
2021/09/28 03:00:27;;;;;;;5.90;3.70;;;;;;;;;;5050680;28;20169;-82
2021/09/28 03:02:54;;;;;;;5.40;3.97;;;;;;;;;;5077254;28;20432;-83
2021/09/28 03:05:20;;;;;;;5.70;3.90;;;;;;;;;;5064608;28;20121;-83
2021/09/28 03:07:46;;;;;;;4.78;3.40;;;;;;;;;;5050305;28;20063;-82
2021/09/28 03:10:13;;;;;;;5.28;3.90;;;;;;;;;;5070429;28;20060;-83
2021/09/28 03:12:39;;;;;;;5.47;4.30;;;;;;;;;;5061915;28;20480;-84
2021/09/28 03:15:07;;;;;;;6.00;4.25;;;;;;;;;;5059491;28;20122;-85
2021/09/28 03:17:33;;;;;;;4.80;4.07;;;;;;;;;;5073152;28;20121;-83
2021/09/28 03:19:59;;;;;;;4.70;3.83;;;;;;;;;;5063320;28;20044;-83
2021/09/28 03:22:26;;;;;;;6.38;3.67;;;;;;;;;;5078232;28;20044;-83
2021/09/28 03:24:52;;;;;;;4.95;3.80;;;;;;;;;;5056038;28;20080;-82
2021/09/28 03:27:18;;;;;;;4.65;3.28;;;;;;;;;;5065303;28;20076;-87
2021/09/28 03:29:45;;;;;;;5.93;4.13;;;;;;;;;;5047224;28;20040;-87
2021/09/28 03:32:11;;;;;;;4.30;3.53;;;;;;;;;;5055099;28;20510;-86
2021/09/28 03:34:38;;;;;;;4.47;3.35;;;;;;;;;;5074614;28;20075;-87
2021/09/28 03:37:04;;;;;;;4.35;3.40;;;;;;;;;;5066491;28;20059;-87
2021/09/28 03:39:32;;;;;;;4.88;3.63;;;;;;;;;;5083990;28;20048;-87
2021/09/28 03:41:58;;;;;;;4.13;3.42;;;;;;;;;;5080326;28;20114;-87
2021/09/28 03:44:25;;;;;;;5.40;3.75;;;;;;;;;;5080490;28;20052;-86
2021/09/28 03:46:51;;;;;;;5.47;3.60;;;;;;;;;;5083393;28;20047;-86
2021/09/28 03:49:18;;;;;;;4.18;3.42;;;;;;;;;;5084303;28;20066;-87
2021/09/28 03:51:45;;;;;;;4.90;3.67;;;;;;;;;;5085191;28;20132;-86
2021/09/28 03:54:11;;;;;;;5.65;3.95;;;;;;;;;;5083193;28;20060;-88
2021/09/28 03:56:37;;;;;;;5.63;3.53;;;;;;;;;;5084547;28;20056;-85
2021/09/28 03:59:04;;;;;;;4.07;3.25;;;;;;;;;;5085220;28;20475;-88
2021/09/28 04:01:30;;;;;;;5.82;3.75;;;;;;;;;;5083873;28;20055;-87
2021/09/28 04:03:57;;;;;;;5.70;3.15;;;;;;;;;;5085920;28;20454;-87
2021/09/28 04:06:23;;;;;;;5.07;3.33;;;;;;;;;;5088412;28;20059;-90
2021/09/28 04:08:50;;;;;;;5.05;3.47;;;;;;;;;;5086096;28;20066;-86
2021/09/28 04:11:16;;;;;;;4.78;3.70;;;;;;;;;;5063920;28;20106;-86
2021/09/28 04:13:46;;;;;;;5.28;3.40;;;;;;;;;;5065151;28;20068;-86
2021/09/28 04:16:13;;;;;;;5.18;3.50;;;;;;;;;;5066597;28;20094;-84
2021/09/28 04:18:39;;;;;;;3.67;3.10;;;;;;;;;;5082703;28;20538;-83
2021/09/28 04:21:07;;;;;;;5.05;3.33;;;;;;;;;;5065682;28;20056;-84
2021/09/28 04:23:34;;;;;;;4.25;2.83;;;;;;;;;;5081478;28;20515;-85
2021/09/28 04:26:02;;;;;;;5.10;3.35;;;;;;;;;;5085019;28;20075;-83
2021/09/28 04:28:29;;;;;;;4.30;3.05;;;;;;;;;;5082978;28;20052;-82
2021/09/28 04:30:55;;;;;;;5.22;3.47;;;;;;;;;;5085408;28;20503;-83
2021/09/28 04:33:22;;;;;;;4.60;2.88;;;;;;;;;;5082437;28;20056;-84
2021/09/28 04:35:48;;;;;;;6.68;3.92;;;;;;;;;;5064697;28;20133;-84
2021/09/28 04:38:14;;;;;;;7.68;3.53;;;;;;;;;;5067104;28;20060;-88
2021/09/28 04:40:42;;;;;;;4.80;2.85;;;;;;;;;;5065753;28;20416;-88
2021/09/28 04:43:08;;;;;;;4.82;3.28;;;;;;;;;;5087847;28;20059;-88
2021/09/28 04:45:34;;;;;;;4.68;3.30;;;;;;;;;;5088778;28;20122;-87
2021/09/28 04:48:01;;;;;;;4.22;3.08;;;;;;;;;;5062026;28;20037;-85
2021/09/28 04:50:27;;;;;;;5.22;2.90;;;;;;;;;;5076451;28;20029;-86
2021/09/28 04:52:54;;;;;;;7.88;4.13;;;;;;;;;;5066159;28;21316;-86
2021/09/28 04:55:20;;;;;;;3.92;2.80;;;;;;;;;;5076096;28;20068;-86
2021/09/28 04:57:46;;;;;;;4.75;3.13;;;;;;;;;;5081917;28;20052;-85
2021/09/28 05:00:13;;;;;;;5.25;2.80;;;;;;;;;;5088180;28;20059;-85
2021/09/28 05:02:39;;;;;;;4.57;3.50;;;;;;;;;;5082312;28;20052;-85
2021/09/28 05:05:06;;;;;;;4.22;3.00;;;;;;;;;;5088040;28;20495;-86
2021/09/28 05:07:33;;;;;;;5.25;3.50;;;;;;;;;;5087974;28;20056;-85
2021/09/28 05:09:59;;;;;;;4.68;2.78;;;;;;;;;;5070503;28;20200;-85
2021/09/28 05:12:25;;;;;;;4.60;3.20;;;;;;;;;;5087649;28;20067;-86
2021/09/28 05:14:52;;;;;;;4.60;3.00;;;;;;;;;;5086397;28;20516;-85
2021/09/28 05:17:18;;;;;;;5.43;3.17;;;;;;;;;;5077920;28;20075;-86
2021/09/28 05:19:45;;;;;;;5.40;3.00;;;;;;;;;;5062805;28;20071;-85
2021/09/28 05:22:11;;;;;;;6.22;2.78;;;;;;;;;;5083586;28;20040;-85
2021/09/28 05:24:37;;;;;;;4.43;2.85;;;;;;;;;;5086409;28;20075;-85
2021/09/28 05:27:04;;;;;;;5.13;2.83;;;;;;;;;;5088886;28;20056;-85
2021/09/28 05:29:32;;;;;;;4.10;2.53;;;;;;;;;;5086177;28;20020;-84
2021/09/28 05:31:59;;;;;;;4.68;2.95;;;;;;;;;;5088478;28;20056;-85
2021/09/28 05:34:27;;;;;;;3.67;2.80;;;;;;;;;;5090204;28;20082;-85
2021/09/28 05:36:55;;;;;;;4.25;2.75;;;;;;;;;;5072665;28;20097;-85
2021/09/28 05:39:21;;;;;;;4.38;3.08;;;;;;;;;;5088138;28;20063;-85
2021/09/28 05:41:48;;;;;;;5.38;2.70;;;;;;;;;;5086405;28;20522;-85
2021/09/28 05:44:14;;;;;;;3.92;2.47;;;;;;;;;;5086497;28;20041;-86
2021/09/28 05:46:41;;;;;;;4.45;2.70;;;;;;;;;;5087099;28;20131;-85
2021/09/28 05:49:07;;;;;;;5.22;2.97;;;;;;;;;;5069962;28;20060;-85
2021/09/28 05:51:35;;;;;;;4.85;2.75;;;;;;;;;;5066215;28;20538;-85
2021/09/28 05:54:02;;;;;;;4.07;2.60;;;;;;;;;;5084528;28;20512;-85
2021/09/28 05:56:29;;;;;;;5.10;2.60;;;;;;;;;;5064746;28;20052;-85
2021/09/28 05:58:55;;;;;;;4.47;2.97;;;;;;;;;;5071616;28;20065;-87
2021/09/28 06:01:22;;;;;;;3.90;2.55;;;;;;;;;;5075758;28;20498;-86
2021/09/28 06:03:48;;;;;;;4.78;2.90;;;;;;;;;;5060879;28;20063;-86
2021/09/28 06:06:15;;;;;;;4.95;3.03;;;;;;;;;;5052663;28;20508;-86
2021/09/28 06:08:41;;;;;;;4.25;3.00;;;;;;;;;;5063218;28;20468;-85
2021/09/28 06:11:08;;;;;;;5.03;2.60;;;;;;;;;;5069770;28;20056;-86
2021/09/28 06:13:34;;;;;;;5.50;3.17;;;;;;;;;;5078915;28;20041;-85
2021/09/28 06:16:00;;;;;;;4.65;3.10;;;;;;;;;;5081877;28;20086;-85
2021/09/28 06:18:27;;;;;;;3.65;2.47;;;;;;;;;;5063153;28;20064;-86
2021/09/28 06:20:53;;;;;;;5.32;3.05;;;;;;;;;;5084144;28;20293;-85
2021/09/28 06:23:20;;;;;;;4.57;2.60;;;;;;;;;;5078741;28;20044;-85
2021/09/28 06:25:46;;;;;;;4.32;2.70;;;;;;;;;;5083760;28;20483;-86
2021/09/28 06:28:13;;;;;;;4.30;2.88;;;;;;;;;;5088016;28;20772;-85
2021/09/28 06:30:39;;;;;;;5.05;2.53;;;;;;;;;;5068565;28;20071;-86
2021/09/28 06:33:06;;;;;;;3.15;2.30;;;;;;;;;;5089298;28;20032;-87
2021/09/28 06:35:32;;;;;;;4.72;2.78;;;;;;;;;;5067866;28;20060;-84
2021/09/28 06:38:00;;;;;;;3.50;2.30;;;;;;;;;;5078081;28;20486;-85
2021/09/28 06:40:27;;;;;;;3.78;2.20;;;;;;;;;;5088388;28;20085;-86
2021/09/28 06:42:53;;;;;;;4.13;2.65;;;;;;;;;;5067914;28;20040;-86
2021/09/28 06:45:20;;;;;;;3.25;2.30;;;;;;;;;;5084692;28;20060;-84
2021/09/28 06:47:47;;;;;;;3.38;2.35;;;;;;;;;;5084064;28;20036;-87
2021/09/28 06:50:14;;;;;;;5.13;2.67;;;;;;;;;;5063692;28;20497;-83
2021/09/28 06:52:43;;;;;;;2.97;1.83;;;;;;;;;;5078425;28;20075;-81
2021/09/28 06:55:09;;;;;;;3.55;1.70;;;;;;;;;;5073960;28;20498;-82
2021/09/28 06:57:36;;;;;;;3.35;1.80;;;;;;;;;;5049489;28;20028;-82
2021/09/28 07:00:04;;;;;;;3.38;2.00;;;;;;;;;;5051931;28;20036;-83
2021/09/28 07:02:30;;;;;;;4.30;2.05;;;;;;;;;;5042359;28;20145;-82
2021/09/28 07:04:56;;;;;;;2.75;1.80;;;;;;;;;;5077433;28;20083;-83
2021/09/28 07:07:27;;;;;;;3.53;1.88;;;;;;;;;;5055700;28;20060;-83
2021/09/28 07:09:54;;;;;;;5.15;1.80;;;;;;;;;;5084056;28;20994;-82
2021/09/28 07:12:20;;;;;;;3.65;1.90;;;;;;;;;;5062064;28;20028;-82
2021/09/28 07:14:46;;;;;;;2.75;1.90;;;;;;;;;;5045752;28;20076;-82
2021/09/28 07:17:13;;;;;;;4.65;1.52;;;;;;;;;;5048065;28;20550;-82
2021/09/28 07:19:40;;;;;;;3.10;1.70;;;;;;;;;;5064724;28;20067;-82
2021/09/28 07:22:06;;;;;;;4.10;1.90;;;;;;;;;;5073985;28;20055;-82
2021/09/28 07:24:33;;;;;;;2.78;1.98;;;;;;;;;;5076423;28;20124;-81
2021/09/28 07:26:59;;;;;;;2.90;1.95;;;;;;;;;;5087387;28;20060;-81
2021/09/28 07:29:26;;;;;;;3.78;1.88;;;;;;;;;;5067140;28;20514;-81
2021/09/28 07:31:52;;;;;;;3.47;1.67;;;;;;;;;;5086008;28;20148;-82
2021/09/28 07:34:18;;;;;;;3.90;1.80;;;;;;;;;;5084714;28;20257;-82
2021/09/28 07:36:45;;;;;;;3.35;1.83;;;;;;;;;;5087134;28;20074;-81
2021/09/28 07:39:14;;;;;;;4.53;1.90;;;;;;;;;;5085578;28;20059;-81
2021/09/28 07:41:40;;;;;;;3.55;1.60;;;;;;;;;;5084650;28;20569;-82
2021/09/28 07:44:06;;;;;;;3.67;1.88;;;;;;;;;;5066876;28;20113;-82
2021/09/28 07:46:33;;;;;;;2.80;1.60;;;;;;;;;;5047671;28;20036;-82
2021/09/28 07:48:59;;;;;;;3.28;1.77;;;;;;;;;;5044644;28;20110;-82
2021/09/28 07:51:26;;;;;;;2.58;1.58;;;;;;;;;;5083006;28;20025;-82
2021/09/28 07:53:52;;;;;;;2.45;1.58;;;;;;;;;;5072307;28;20067;-81
2021/09/28 07:56:20;;;;;;;2.95;1.70;;;;;;;;;;5057859;28;20064;-82
2021/09/28 07:58:46;;;;;;;3.33;1.88;;;;;;;;;;5068928;28;20098;-82
2021/09/28 08:01:13;;;;;;;3.53;1.42;;;;;;;;;;5064208;28;20084;-83
2021/09/28 08:03:39;;;;;;;2.00;1.30;;;;;;;;;;5082882;28;20078;-84
2021/09/28 08:06:05;;;;;;;3.13;1.63;;;;;;;;;;5082184;28;20095;-83
2021/09/28 08:08:32;;;;;;;2.97;1.77;;;;;;;;;;5065955;28;20059;-83
2021/09/28 08:10:58;;;;;;;3.00;1.60;;;;;;;;;;5086523;28;20568;-84
2021/09/28 08:13:25;;;;;;;3.17;1.55;;;;;;;;;;5084747;28;20620;-83
2021/09/28 08:15:51;;;;;;;2.58;1.65;;;;;;;;;;5080096;28;20064;-82
2021/09/28 08:18:18;;;;;;;2.03;1.30;;;;;;;;;;5085709;28;20052;-82
2021/09/28 08:20:46;;;;;;;4.85;1.48;;;;;;;;;;5085115;28;20032;-83
2021/09/28 08:23:12;;;;;;;2.78;1.30;;;;;;;;;;5086681;28;20116;-83
2021/09/28 08:31:07;;;;;;;3.05;1.63;;;;;;;;;;5069880;28;20055;-82
2021/09/28 08:33:34;;;;;;;2.65;1.23;;;;;;;;;;5077304;28;20060;-82
2021/09/28 08:36:01;;;;;;;3.70;1.27;;;;;;;;;;5053032;28;20059;-83
2021/09/28 08:38:28;;;;;;;3.45;1.67;;;;;;;;;;5084839;28;20028;-83
2021/09/28 08:40:55;;;;;;;2.08;1.30;;;;;;;;;;5084707;28;20064;-81
2021/09/28 08:43:22;;;;;;;2.45;1.30;;;;;;;;;;5085765;28;20033;-80
2021/09/28 08:45:49;;;;;;;3.15;1.50;;;;;;;;;;5066098;28;20093;-81
2021/09/28 08:48:15;;;;;;;3.72;1.48;;;;;;;;;;5084238;28;20536;-80
2021/09/28 08:50:49;;;;;;;2.50;1.30;;;;;;;;;;5082287;28;20098;-81
2021/09/28 08:53:15;;;;;;;2.90;1.20;;;;;;;;;;5081165;28;20616;-81
2021/09/28 08:55:42;;;;;;;3.60;1.40;;;;;;;;;;5082727;28;20064;-81
2021/09/28 08:58:19;;;;;;;2.95;1.63;;;;;;;;;;5077706;28;20430;-81
2021/09/28 09:00:46;;;;;;;3.13;1.23;;;;;;;;;;5080988;28;20557;-82
2021/09/28 09:03:42;;;;;;;3.25;1.33;;;;;;;;;;5067358;28;20028;-81
2021/09/28 09:06:09;;;;;;;3.72;1.30;;;;;;;;;;5052157;28;20109;-82
2021/09/28 09:08:37;;;;;;;3.35;1.38;;;;;;;;;;5075184;28;20083;-82
2021/09/28 09:11:05;;;;;;;3.95;1.40;;;;;;;;;;5075377;28;20029;-82
2021/09/28 09:13:39;;;;;;;2.85;1.30;;;;;;;;;;5067674;28;20028;-81
2021/09/28 09:16:06;;;;;;;3.58;1.20;;;;;;;;;;5078534;28;20521;-81
2021/09/28 09:18:33;;;;;;;2.97;1.10;;;;;;;;;;5081948;28;20071;-81
2021/09/28 09:21:01;;;;;;;3.67;1.10;;;;;;;;;;5079323;28;20421;-82
2021/09/28 09:23:31;;;;;;;2.88;1.33;;;;;;;;;;5082093;28;20064;-83
2021/09/28 09:26:08;;;;;;;3.42;1.10;;;;;;;;;;5068288;28;20312;-83
2021/09/28 09:28:37;;;;;;;3.95;1.58;;;;;;;;;;5062706;28;20484;-82
2021/09/28 09:31:07;;;;;;;4.00;1.20;;;;;;;;;;5068057;28;20068;-83
2021/09/28 09:33:33;;;;;;;4.78;1.20;;;;;;;;;;5083326;28;20377;-82
2021/09/28 09:36:00;;;;;;;2.28;0.90;;;;;;;;;;5085274;28;20056;-83
2021/09/28 09:38:28;;;;;;;2.70;1.10;;;;;;;;;;5069833;28;20048;-82
2021/09/28 09:40:54;;;;;;;4.07;1.13;;;;;;;;;;5080143;28;20093;-83
2021/09/28 09:43:31;;;;;;;4.43;1.17;;;;;;;;;;5071698;28;20024;-83
2021/09/28 09:46:11;;;;;;;3.08;1.10;;;;;;;;;;5078531;28;20082;-83
2021/09/28 09:48:38;;;;;;;3.20;1.27;;;;;;;;;;5067376;28;20036;-83
2021/09/28 09:51:06;;;;;;;3.47;1.58;;;;;;;;;;5068861;28;20063;-82
2021/09/28 09:53:34;;;;;;;2.95;1.00;;;;;;;;;;5076080;28;20149;-80
2021/09/28 09:56:00;;;;;;;2.53;1.02;;;;;;;;;;5056095;28;20101;-83
2021/09/28 09:58:27;;;;;;;4.28;1.20;;;;;;;;;;5067923;28;20067;-82
2021/09/28 10:00:54;;;;;;;2.13;0.98;;;;;;;;;;5069678;28;20071;-83
2021/09/28 10:03:21;;;;;;;2.45;1.15;;;;;;;;;;5053364;28;20032;-83
2021/09/28 10:05:48;;;;;;;3.22;1.23;;;;;;;;;;5072471;28;20028;-82
2021/09/28 10:08:15;;;;;;;3.55;1.00;;;;;;;;;;5083003;28;20494;-82
2021/09/28 10:10:42;;;;;;;2.55;1.10;;;;;;;;;;5078024;28;20028;-82
2021/09/28 10:13:28;;;;;;;4.35;1.17;;;;;;;;;;5074225;28;20044;-82
2021/09/28 10:16:24;;;;;;;2.53;1.25;;;;;;;;;;5064645;28;20064;-81
2021/09/28 10:18:50;;;;;;;2.08;1.00;;;;;;;;;;5057244;28;20040;-81
2021/09/28 10:21:35;;;;;;;2.58;1.10;;;;;;;;;;5078188;28;20072;-80
2021/09/28 10:24:20;;;;;;;3.20;1.15;;;;;;;;;;5087476;28;20055;-80
2021/09/28 10:26:59;;;;;;;4.18;1.10;;;;;;;;;;5068576;28;20032;-81
2021/09/28 10:29:37;;;;;;;2.13;0.90;;;;;;;;;;5067804;28;20099;-82
2021/09/28 10:32:33;;;;;;;3.80;1.23;;;;;;;;;;5062354;28;20300;-82
2021/09/28 10:35:06;;;;;;;4.07;1.15;;;;;;;;;;5066249;28;20103;-82
2021/09/28 10:37:42;;;;;;;3.60;1.40;;;;;;;;;;5066980;28;20033;-82
2021/09/28 10:40:29;;;;;;;3.17;1.38;;;;;;;;;;5071195;28;20048;-82
2021/09/28 10:43:00;;;;;;;3.65;1.05;;;;;;;;;;5081846;28;20066;-82
2021/09/28 10:45:29;;;;;;;2.38;0.95;;;;;;;;;;5081385;28;20200;-76
2021/09/28 10:47:56;;;;;;;3.72;1.20;;;;;;;;;;5059032;28;21898;-76
2021/09/28 10:50:24;;;;;;;2.67;1.10;;;;;;;;;;5048254;28;20097;-77
2021/09/28 10:52:52;;;;;;;3.03;1.20;;;;;;;;;;5050659;28;20120;-77
2021/09/28 10:55:19;;;;;;;3.20;1.08;;;;;;;;;;5066920;28;20064;-78
2021/09/28 11:00:53;;;;;;;3.30;0.98;;;;;;;;;;5085924;28;20064;-78
2021/09/28 11:03:38;;;;;;;4.65;1.20;;;;;;;;;;5086619;28;20099;-77
2021/09/28 11:06:05;;;;;;;2.75;1.00;;;;;;;;;;5064694;28;20880;-77
2021/09/28 11:08:36;;;;;;;2.47;0.80;;;;;;;;;;5068312;28;20081;-77
2021/09/28 11:11:04;;;;;;;2.22;0.80;;;;;;;;;;5088297;28;20072;-77
2021/09/28 11:13:31;;;;;;;3.42;0.98;;;;;;;;;;5080760;28;20071;-79
2021/09/28 11:16:02;;;;;;;2.72;0.95;;;;;;;;;;5087640;28;20071;-78
2021/09/28 11:18:28;;;;;;;2.33;0.90;;;;;;;;;;5084971;28;20056;-77
2021/09/28 11:21:07;;;;;;;4.45;1.13;;;;;;;;;;5085363;28;21312;-78
2021/09/28 11:23:33;;;;;;;3.05;1.10;;;;;;;;;;5086591;28;20132;-78
2021/09/28 11:25:59;;;;;;;2.30;1.20;;;;;;;;;;5070153;28;20097;-77
2021/09/28 11:28:26;;;;;;;2.92;1.17;;;;;;;;;;5083980;28;20113;-78
2021/09/28 11:30:52;;;;;;;3.13;1.20;;;;;;;;;;5066845;28;20060;-77
2021/09/28 11:33:19;;;;;;;3.83;1.50;;;;;;;;;;5064389;28;20041;-77
2021/09/28 11:36:21;;;;;;;3.25;1.00;;;;;;;;;;5066884;28;20117;-78
2021/09/28 11:38:50;;;;;;;3.60;1.05;;;;;;;;;;5035626;28;20033;-78
2021/09/28 11:41:18;;;;;;;6.15;0.90;;;;;;;;;;5074423;28;20043;-78
2021/09/28 11:43:52;;;;;;;2.83;0.95;;;;;;;;;;5066432;28;20060;-77
2021/09/28 11:46:20;;;;;;;2.67;1.00;;;;;;;;;;5066889;28;20051;-77
2021/09/28 11:49:00;;;;;;;2.30;0.93;;;;;;;;;;5077893;28;20036;-77
2021/09/28 11:51:27;;;;;;;2.53;0.90;;;;;;;;;;5067993;28;20062;-77
2021/09/28 11:53:55;;;;;;;4.05;1.00;;;;;;;;;;5082354;28;20089;-77
2021/09/28 11:56:23;;;;;;;2.50;1.00;;;;;;;;;;5076585;28;20056;-77
2021/09/28 11:58:50;;;;;;;2.20;1.10;;;;;;;;;;5063723;28;20552;-77
2021/09/28 12:01:18;;;;;;;3.75;1.10;;;;;;;;;;5085918;28;20044;-77
2021/09/28 12:09:34;;;;;;;3.13;0.90;;;;;;;;;;5081544;28;20106;-78
2021/09/28 12:12:05;;;;;;;1.92;0.70;;;;;;;;;;5065594;28;20032;-76
2021/09/28 12:14:34;;;;;;;1.73;0.90;;;;;;;;;;5083945;28;20081;-76
2021/09/28 12:17:17;;;;;;;3.67;0.80;;;;;;;;;;5085322;28;20461;-78
2021/09/28 12:19:47;;;;;;;3.25;0.85;;;;;;;;;;5085054;28;20144;-76
2021/09/28 12:22:14;;;;;;;3.03;0.75;;;;;;;;;;5075596;28;20121;-77
2021/09/28 12:24:41;;;;;;;2.83;0.93;;;;;;;;;;5076939;28;20036;-77
2021/09/28 12:27:08;;;;;;;3.33;1.13;;;;;;;;;;5070521;28;20135;-76
2021/09/28 12:29:42;;;;;;;1.65;0.80;;;;;;;;;;5080559;28;20044;-77
2021/09/28 12:32:09;;;;;;;2.75;0.88;;;;;;;;;;5084827;28;20086;-76
2021/09/28 12:34:55;;;;;;;1.42;0.68;;;;;;;;;;5058037;28;20052;-77
2021/09/28 12:37:23;;;;;;;1.77;0.77;;;;;;;;;;5064922;28;20068;-76
2021/09/28 12:39:58;;;;;;;3.28;0.82;;;;;;;;;;5065422;28;20519;-77
2021/09/28 12:42:25;;;;;;;2.20;0.85;;;;;;;;;;5071951;28;20064;-76
2021/09/28 12:44:57;;;;;;;1.88;0.68;;;;;;;;;;5083298;28;20433;-76
2021/09/28 12:47:29;;;;;;;2.85;1.05;;;;;;;;;;5082599;28;20051;-77
2021/09/28 12:49:56;;;;;;;1.45;0.70;;;;;;;;;;5083036;28;20444;-77
2021/09/28 12:52:22;;;;;;;2.10;0.73;;;;;;;;;;5085079;28;20109;-77
2021/09/28 12:54:49;;;;;;;2.67;1.00;;;;;;;;;;5066555;28;20060;-77
2021/09/28 12:57:15;;;;;;;2.38;0.90;;;;;;;;;;5072012;28;20028;-77
2021/09/28 12:59:42;;;;;;;2.13;1.00;;;;;;;;;;5082559;28;20101;-77
2021/09/28 13:02:09;;;;;;;2.47;0.90;;;;;;;;;;5087445;28;20082;-76
2021/09/28 13:04:37;;;;;;;2.75;0.80;;;;;;;;;;5084966;28;20036;-77
2021/09/28 13:07:08;;;;;;;2.30;0.75;;;;;;;;;;5089364;28;20117;-77
2021/09/28 13:09:35;;;;;;;2.17;0.68;;;;;;;;;;5088423;28;20500;-77
2021/09/28 13:12:01;;;;;;;2.55;0.73;;;;;;;;;;5087313;28;20063;-77
2021/09/28 13:14:28;;;;;;;2.03;0.52;;;;;;;;;;5084351;28;20068;-76
2021/09/28 13:16:57;;;;;;;3.15;0.80;;;;;;;;;;5082639;28;20452;-75
2021/09/28 13:19:24;;;;;;;2.53;0.90;;;;;;;;;;5086026;28;20101;-79
2021/09/28 13:21:50;;;;;;;2.47;1.05;;;;;;;;;;5074539;28;20118;-76
2021/09/28 13:24:16;;;;;;;2.10;0.80;;;;;;;;;;5090250;28;20048;-76
2021/09/28 13:26:43;;;;;;;3.17;0.93;;;;;;;;;;5086293;28;20052;-76
2021/09/28 13:29:09;;;;;;;3.97;0.80;;;;;;;;;;5082335;28;20052;-76
2021/09/28 13:31:36;;;;;;;1.80;0.85;;;;;;;;;;5088437;28;20051;-76
2021/09/28 13:34:02;;;;;;;2.40;0.70;;;;;;;;;;5084379;28;20125;-76
2021/09/28 13:36:28;;;;;;;2.85;0.85;;;;;;;;;;5086807;28;20483;-76
2021/09/28 13:38:55;;;;;;;3.50;0.85;;;;;;;;;;5078081;28;20103;-76
2021/09/28 13:41:21;;;;;;;3.28;0.95;;;;;;;;;;5088323;28;20052;-76
2021/09/28 13:43:48;;;;;;;1.98;0.95;;;;;;;;;;5083444;28;20055;-75
2021/09/28 13:46:14;;;;;;;2.42;0.95;;;;;;;;;;5086077;28;20110;-77
2021/09/28 13:48:41;;;;;;;2.47;0.75;;;;;;;;;;5085917;28;20472;-76
2021/09/28 13:51:07;;;;;;;2.40;0.80;;;;;;;;;;5083642;28;20024;-76
2021/09/28 13:53:34;;;;;;;3.70;0.98;;;;;;;;;;5081345;28;20063;-77
2021/09/28 13:56:00;;;;;;;2.67;0.80;;;;;;;;;;5086591;28;20076;-77
2021/09/28 13:58:27;;;;;;;3.00;1.05;;;;;;;;;;5068414;28;20156;-77
2021/09/28 14:00:53;;;;;;;2.35;0.80;;;;;;;;;;5085976;28;20071;-77
2021/09/28 14:03:19;;;;;;;2.08;0.70;;;;;;;;;;5087455;28;20079;-77
2021/09/28 14:05:46;;;;;;;3.22;1.00;;;;;;;;;;5084649;28;20064;-77
2021/09/28 14:08:12;;;;;;;3.65;1.02;;;;;;;;;;5085913;28;20085;-76
2021/09/28 14:10:39;;;;;;;3.65;0.90;;;;;;;;;;5082996;28;20056;-76
2021/09/28 14:13:05;;;;;;;2.67;0.85;;;;;;;;;;5086749;28;20063;-77
2021/09/28 14:15:32;;;;;;;2.83;0.80;;;;;;;;;;5065974;28;20123;-79
2021/09/28 14:17:58;;;;;;;4.05;0.98;;;;;;;;;;5086469;28;20138;-77
2021/09/28 14:20:25;;;;;;;2.45;0.70;;;;;;;;;;5086695;28;20111;-77
2021/09/28 14:22:52;;;;;;;3.28;0.80;;;;;;;;;;5082139;28;20063;-82
2021/09/28 14:25:19;;;;;;;3.15;1.00;;;;;;;;;;5067852;28;20043;-79
2021/09/28 14:27:45;;;;;;;2.85;1.00;;;;;;;;;;5084797;28;20058;-79
2021/09/28 14:30:12;;;;;;;3.85;1.00;;;;;;;;;;5065812;28;20060;-79
2021/09/28 14:32:40;;;;;;;2.60;0.90;;;;;;;;;;5083141;28;20062;-79
2021/09/28 14:35:07;;;;;;;4.32;0.95;;;;;;;;;;5084020;28;20232;-78
2021/09/28 14:37:34;;;;;;;2.80;0.98;;;;;;;;;;5083944;28;20105;-78
2021/09/28 14:40:00;;;;;;;1.95;0.90;;;;;;;;;;5087301;28;20063;-78
2021/09/28 14:42:28;;;;;;;2.55;0.82;;;;;;;;;;5086692;28;20048;-79
2021/09/28 14:44:55;;;;;;;4.05;1.00;;;;;;;;;;5084720;28;20764;-80
2021/09/28 14:47:21;;;;;;;2.20;0.90;;;;;;;;;;5085632;28;20059;-78
2021/09/28 14:49:48;;;;;;;3.13;0.93;;;;;;;;;;5083641;28;20510;-78
2021/09/28 14:52:14;;;;;;;4.47;0.90;;;;;;;;;;5085760;28;20063;-79
2021/09/28 14:54:40;;;;;;;1.90;0.80;;;;;;;;;;5082434;28;20511;-79
2021/09/28 14:57:07;;;;;;;3.97;1.08;;;;;;;;;;5083612;28;20091;-79
2021/09/28 14:59:33;;;;;;;3.28;0.90;;;;;;;;;;5086127;28;20476;-78
2021/09/28 15:02:02;;;;;;;3.20;0.98;;;;;;;;;;5088106;28;20045;-79